Météo ( Metar ) des aéroports voisins de france et espagne.

 

LFBZ - Biarritz, Pays basque
Nouvelle Aquitaine - France
Distance direct 32 km Sud
Mise à jour: 28/05/2022 15:30
clair
clair
 Wind from ONO
Vent: ONO 19 km/h
Température: 21°C
Point de rosée: 15°C
Humidité: 69%
Baromètre: 1017 hPa
Résumé: clair
Visibility: greater than 10 km
2022/05/28 13:30 LFBZ 281330Z AUTO 30010KT CAVOK 21/15 Q1017 NOSIG
LFBY - Dax Seyresse,
Nouvelle Aquitaine - France
Distance direct 29 km Est
Mise à jour: 28/05/2022 15:30

 Wind from NNE
Vent: NNE 7 km/h
Température: 26°C
Point de rosée: 11°C
Humidité: 39%
Baromètre: 1016 hPa
Visibility: 10 km
2022/05/28 13:30 LFBY 281330Z AUTO 03004KT 310V110 9999 // ////// 26/11 Q1016
 
LFBD - Bordeaux Mérignac,
Nouvelle Aquitaine - France
Distance direct 156 km Nord
Mise à jour: 28/05/2022 15:30
clair
clair
 Wind from NNE
Vent: NNE 15 km/h
Température: 25°C
Point de rosée: 8°C
Humidité: 34%
Baromètre: 1017 hPa
Résumé: clair
Visibility: greater than 10 km
2022/05/28 13:30 LFBD 281330Z AUTO 02008KT 320V060 CAVOK 25/08 Q1017 NOSIG
LFBP - Pau Pyrennées atlantiques,
Nouvelle Aquitaine - France
Distance direct 120 km SSE
Mise à jour: 28/05/2022 15:30
clair
clair
 Wind from ONO
Vent: ONO 9 km/h
Température: 25°C
Point de rosée: 14°C
Humidité: 51%
Baromètre: 1016 hPa
Résumé: clair
Visibility: greater than 10 km
2022/05/28 13:30 LFBP 281330Z AUTO 29005KT 250V350 CAVOK 25/14 Q1016 NOSIG
 
LFBA - Agen La Garenne,
Lot et Garonne - France
Distance direct 210 km ENE
Mise à jour: 28/05/2022 15:30
clair
clair
 Wind from N
Vent: N 13 km/h
Température: 26°C
Point de rosée: 10°C
Humidité: 37%
Baromètre: 1015 hPa
Résumé: clair
Visibility: greater than 10 km
2022/05/28 13:30 LFBA 281330Z AUTO 35007KT 270V060 CAVOK 26/10 Q1015 NOSIG
LFBT - Tarbes Lourdes,
Hautes Pyrennées - France
Distance direct 150 km ESE
Mise à jour: 28/05/2022 15:30
clair
clair
 Wind from NO
Vent: NO 13 km/h
Température: 24°C
Point de rosée: 15°C
Humidité: 57%
Baromètre: 1016 hPa
Résumé: clair
Visibility: greater than 10 km
2022/05/28 13:30 LFBT 281330Z AUTO 31007KT 240V020 CAVOK 24/15 Q1016 NOSIG
 
LFBO - Toulouse Blagnac,
Haute Garonne,- France
Distance direct 250 km EST
Mise à jour: 28/05/2022 15:30
clair
clair
 Wind from NNO
Vent: NNO 19 km/h
Température: 26°C
Point de rosée: 12°C
Humidité: 42%
Baromètre: 1015 hPa
Résumé: clair
Visibility: greater than 10 km
2022/05/28 13:30 LFBO 281330Z AUTO 33010KT 300V360 CAVOK 26/12 Q1015 NOSIG
LFBE - Bergerac, Dordogne,
Nouvelle Aquitaine - France
Distance direct 240 km EST
Mise à jour: 28/05/2022 15:30
clair
clair
 Wind from NNE
Vent: NNE 13 km/h
Température: 27°C
Point de rosée: 7°C
Humidité: 28%
Baromètre: 1016 hPa
Résumé: clair
Visibility: greater than 10 km
2022/05/28 13:30 LFBE 281330Z AUTO 03007KT 350V080 CAVOK 27/07 Q1016 NOSIG
 
LESO - Saint Sebastien,
Pays basque/ESPANA
Distance direct 94 km ESE
Mise à jour: 28/05/2022 15:30
Few Clouds
Few Clouds
 Wind from N
Vent: N 11 km/h
Température: 21°C
Point de rosée: 15°C
Humidité: 69%
Baromètre: 1017 hPa
Clouds: Few Clouds
Visibility: 10 km
Cloud details: Few Clouds 762 m
2022/05/28 13:30 LESO 281330Z 36006KT 300V050 9999 FEW025 21/15 Q1017
LEBB - Bilbao,,
Vizcaya/ESPANA
Distance direct 180 km ESE
Mise à jour: 28/05/2022 15:30
Few Clouds
Few Clouds
 Wind from N
Vent: N 17 km/h
Température: 24°C
Point de rosée: 15°C
Humidité: 57%
Baromètre: 1017 hPa
Clouds: Few Clouds
Visibility: 10 km
Cloud details: Few Clouds 853 m
2022/05/28 13:30 LEBB 281330Z 36009KT 320V030 9999 FEW028 24/15 Q1017 NOSIG
 
LEVT - Vitoria-Gasteiz,
Pays basque/ESPANA
Distance direct 190 km OSO
Mise à jour: 28/05/2022 15:30
Few Clouds
Few Clouds
 Wind from NNE
Vent: NNE 22 km/h
Température: 23°C
Point de rosée: 14°C
Humidité: 57%
Baromètre: 1017 hPa
Clouds: Few Clouds
Visibility: 10 km
Cloud details: Few Clouds 914 m
2022/05/28 13:30 LEVT 281330Z 02012KT 330V060 9999 FEW030 23/14 Q1017
LEPP - Pamplona,
Pays basque/ESPANA
Distance direct 142 km SUD
Mise à jour: 28/05/2022 15:30
clair
clair
 Wind from NO
Vent: NO 26 km/h
Température: 25°C
Point de rosée: 13°C
Humidité: 47%
Baromètre: 1015 hPa
Résumé: clair
Visibility: greater than 10 km
2022/05/28 13:30 LEPP 281330Z 32014KT 280V350 CAVOK 25/13 Q1015
 
LELO - Logrono,
Pays basque/ESPANA
Distance direct 122 km SSO
Mise à jour: 28/05/2022 15:00
clair
clair
 Wind from OSO
Vent: OSO 15 km/h
Température: 28°C
Point de rosée: 10°C
Humidité: 32%
Baromètre: 1015 hPa
Résumé: clair
Visibility: greater than 10 km
2022/05/28 13:00 LELO 281300Z AUTO 25008KT 200V340 CAVOK 28/10 Q1015
LEZG - Saragosse,
Aragon,/ESPANA
Distance direct 302 km SUD
Mise à jour: 28/05/2022 15:30
clair
clair
 Wind from ONO
Vent: ONO 19 km/h
Température: 29°C
Point de rosée: 11°C
Humidité: 33%
Baromètre: 1013 hPa
Résumé: clair
Visibility: greater than 10 km
2022/05/28 13:30 LEZG 281330Z 29010KT 260V360 CAVOK 29/11 Q1013